createdAt,value
2023-10-04T00:02:22.451Z,15.49
2023-10-04T00:04:53.471Z,15.47
2023-10-04T00:07:30.028Z,15.48
2023-10-04T00:10:05.584Z,15.48
2023-10-04T00:12:38.560Z,15.48
2023-10-04T00:15:14.362Z,15.47
2023-10-04T00:17:45.801Z,15.43
2023-10-04T00:20:18.193Z,15.41
2023-10-04T00:22:51.941Z,15.40
2023-10-04T00:25:24.969Z,15.37
2023-10-04T00:27:57.625Z,15.37
2023-10-04T00:30:30.940Z,15.34
2023-10-04T00:33:07.593Z,15.28
2023-10-04T00:35:45.032Z,15.26
2023-10-04T00:38:21.374Z,15.25
2023-10-04T00:40:52.438Z,15.27
2023-10-04T00:43:26.299Z,15.28
2023-10-04T00:45:57.072Z,15.29
2023-10-04T00:48:36.345Z,15.29
2023-10-04T00:51:08.143Z,15.34
2023-10-04T00:53:44.094Z,15.37
2023-10-04T00:56:18.098Z,15.39
2023-10-04T00:58:54.233Z,15.43
2023-10-04T01:01:31.414Z,15.48
2023-10-04T01:04:03.657Z,15.50
2023-10-04T01:06:38.240Z,15.51
2023-10-04T01:09:14.235Z,15.56
2023-10-04T01:11:54.983Z,15.54
2023-10-04T01:14:29.670Z,15.50
2023-10-04T01:17:01.632Z,15.49
2023-10-04T01:19:32.193Z,15.49
2023-10-04T01:22:09.027Z,15.47
2023-10-04T01:24:43.167Z,15.46
2023-10-04T01:27:14.005Z,15.42
2023-10-04T01:29:48.076Z,15.39
2023-10-04T01:32:21.042Z,15.34
2023-10-04T01:34:51.797Z,15.31
2023-10-04T01:37:25.055Z,15.29
2023-10-04T01:39:56.033Z,15.25
2023-10-04T01:42:27.718Z,15.18
2023-10-04T01:45:01.603Z,15.15
2023-10-04T01:47:32.373Z,15.10
2023-10-04T01:50:03.149Z,15.03
2023-10-04T01:52:36.658Z,15.02
2023-10-04T01:55:11.813Z,14.98
2023-10-04T01:57:53.592Z,14.93
2023-10-04T02:00:27.189Z,14.90
2023-10-04T02:02:58.005Z,14.89
2023-10-04T02:05:34.157Z,14.88
2023-10-04T02:08:16.444Z,14.86
2023-10-04T02:10:52.174Z,14.85
2023-10-04T02:13:27.211Z,14.82
2023-10-04T02:16:00.658Z,14.80
2023-10-04T02:18:31.419Z,14.80
2023-10-04T02:21:03.794Z,14.81
2023-10-04T02:23:37.202Z,14.77
2023-10-04T02:26:08.765Z,14.75
2023-10-04T02:28:41.385Z,14.71
2023-10-04T02:31:14.053Z,14.65
2023-10-04T02:33:52.275Z,14.64
2023-10-04T02:36:27.532Z,14.63
2023-10-04T02:39:08.720Z,14.62
2023-10-04T02:41:43.262Z,14.61
2023-10-04T02:44:21.300Z,14.61
2023-10-04T02:46:55.401Z,14.57
2023-10-04T02:49:25.790Z,14.59
2023-10-04T02:52:01.506Z,14.59
2023-10-04T02:54:35.488Z,14.61
2023-10-04T02:57:13.146Z,14.62
2023-10-04T02:59:44.281Z,14.57
2023-10-04T03:02:17.288Z,14.54
2023-10-04T03:04:51.467Z,14.52
2023-10-04T03:07:24.816Z,14.52
2023-10-04T03:10:00.201Z,14.53
2023-10-04T03:12:31.281Z,14.46
2023-10-04T03:15:02.457Z,14.46
2023-10-04T03:17:33.026Z,14.43
2023-10-04T03:20:05.049Z,14.43
2023-10-04T03:22:39.793Z,14.43
2023-10-04T03:25:16.544Z,14.45
2023-10-04T03:27:50.095Z,14.45
2023-10-04T03:30:24.608Z,14.38
2023-10-04T03:32:57.554Z,14.38
2023-10-04T03:35:30.849Z,14.34
2023-10-04T03:38:03.703Z,14.27
2023-10-04T03:40:40.052Z,14.27
2023-10-04T03:43:14.707Z,14.30
2023-10-04T03:45:47.982Z,14.30
2023-10-04T03:48:20.146Z,14.30
2023-10-04T03:50:51.920Z,14.31
2023-10-04T03:53:23.876Z,14.27
2023-10-04T03:56:00.620Z,14.25
2023-10-04T03:58:32.102Z,14.22
2023-10-04T04:01:06.719Z,14.24
2023-10-04T04:03:38.176Z,14.19
2023-10-04T04:06:13.501Z,14.18
2023-10-04T04:08:44.786Z,14.16
2023-10-04T04:11:30.554Z,14.15
2023-10-04T04:14:01.108Z,14.17
2023-10-04T04:16:31.980Z,14.15
2023-10-04T04:19:03.849Z,14.16
2023-10-04T04:21:35.195Z,14.19
2023-10-04T04:24:05.659Z,14.21
2023-10-04T04:26:40.628Z,14.23
2023-10-04T04:29:18.275Z,14.22
2023-10-04T04:31:50.657Z,14.29
2023-10-04T04:34:21.086Z,14.34
2023-10-04T04:36:52.191Z,14.36
2023-10-04T04:39:29.816Z,14.39
2023-10-04T04:42:06.724Z,14.47
2023-10-04T04:44:42.394Z,14.53
2023-10-04T04:47:13.817Z,14.53
2023-10-04T04:49:44.834Z,14.56
2023-10-04T04:52:16.227Z,14.61
2023-10-04T04:54:54.414Z,14.75
2023-10-04T04:57:27.288Z,14.87
2023-10-04T04:59:58.193Z,15.07
2023-10-04T05:02:33.712Z,15.41
2023-10-04T05:05:13.286Z,15.71
2023-10-04T05:07:44.473Z,15.89
2023-10-04T05:10:15.474Z,16.07
2023-10-04T05:12:51.819Z,16.23
2023-10-04T05:15:35.390Z,16.44
2023-10-04T05:18:12.585Z,16.58
2023-10-04T05:20:43.218Z,16.66
2023-10-04T05:23:13.665Z,16.75
2023-10-04T05:25:44.693Z,16.91
2023-10-04T05:28:21.521Z,16.87
2023-10-04T05:30:55.167Z,16.92
2023-10-04T05:33:29.474Z,16.96
2023-10-04T05:36:04.483Z,17.12
2023-10-04T05:38:37.030Z,17.09
2023-10-04T05:41:11.050Z,17.11
2023-10-04T05:43:44.601Z,17.16
2023-10-04T05:46:16.539Z,17.35
2023-10-04T05:48:47.499Z,17.55
2023-10-04T05:51:19.361Z,17.65
2023-10-04T05:53:54.283Z,17.82
2023-10-04T05:56:27.037Z,17.99
2023-10-04T05:59:01.960Z,18.19
2023-10-04T06:01:35.762Z,18.36
2023-10-04T06:04:07.673Z,18.51
2023-10-04T06:06:38.711Z,18.63
2023-10-04T06:09:11.039Z,18.63
2023-10-04T06:11:41.796Z,18.85
2023-10-04T06:14:18.904Z,18.95
2023-10-04T06:16:55.552Z,19.14
2023-10-04T06:19:30.549Z,19.25
2023-10-04T06:22:02.140Z,19.42
2023-10-04T06:24:32.541Z,19.54
2023-10-04T06:27:03.516Z,19.69
2023-10-04T06:29:38.281Z,19.89
2023-10-04T06:32:11.391Z,20.11
2023-10-04T06:34:44.479Z,20.26
2023-10-04T06:37:17.384Z,20.29
2023-10-04T06:39:57.530Z,20.45
2023-10-04T06:42:30.504Z,20.67
2023-10-04T06:45:04.109Z,20.86
2023-10-04T06:47:35.496Z,21.03
2023-10-04T06:50:09.379Z,21.09
2023-10-04T06:52:40.217Z,21.10
2023-10-04T06:55:12.595Z,21.08
2023-10-04T06:57:50.592Z,21.11
2023-10-04T07:00:29.807Z,21.01
2023-10-04T07:03:04.925Z,21.05
2023-10-04T07:05:37.441Z,21.02
2023-10-04T07:08:10.779Z,21.08
2023-10-04T07:10:41.377Z,21.16
2023-10-04T07:13:11.703Z,21.18
2023-10-04T07:15:47.055Z,21.19
2023-10-04T07:18:20.163Z,21.14
2023-10-04T07:20:50.729Z,21.12
2023-10-04T07:23:32.281Z,21.05
2023-10-04T07:26:10.867Z,21.16
2023-10-04T07:28:43.261Z,21.25
2023-10-04T07:31:22.631Z,21.39
2023-10-04T07:33:55.273Z,21.57
2023-10-04T07:36:25.966Z,21.62
2023-10-04T07:38:59.806Z,21.88
2023-10-04T07:41:32.421Z,22.31
2023-10-04T07:44:04.015Z,22.38
2023-10-04T07:46:49.561Z,22.26
2023-10-04T07:49:24.218Z,22.50
2023-10-04T07:52:00.659Z,22.65
2023-10-04T07:54:31.672Z,22.93
2023-10-04T07:57:04.871Z,22.98
2023-10-04T07:59:38.109Z,23.07
2023-10-04T08:02:12.526Z,23.21
2023-10-04T08:04:43.305Z,23.21
2023-10-04T08:07:17.166Z,23.08
2023-10-04T08:09:48.093Z,22.81
2023-10-04T08:12:22.759Z,22.78
2023-10-04T08:15:02.478Z,22.73
2023-10-04T08:17:35.522Z,22.59
2023-10-04T08:20:08.723Z,22.37
2023-10-04T08:22:42.718Z,22.32
2023-10-04T08:25:14.863Z,22.61
2023-10-04T08:27:46.447Z,22.89
2023-10-04T08:30:19.000Z,23.54
2023-10-04T08:32:57.064Z,23.96
2023-10-04T08:35:29.760Z,24.03
2023-10-04T08:38:01.914Z,24.51
2023-10-04T08:40:43.863Z,24.77
2023-10-04T08:43:14.452Z,24.95
2023-10-04T08:45:49.898Z,25.08
2023-10-04T08:48:23.830Z,25.26
2023-10-04T08:51:02.864Z,25.75
2023-10-04T08:53:45.518Z,25.98
2023-10-04T08:56:21.121Z,26.29
2023-10-04T08:58:56.742Z,26.59
2023-10-04T09:01:30.280Z,26.86
2023-10-04T09:04:06.821Z,26.71
2023-10-04T09:09:13.279Z,25.92
2023-10-04T09:11:46.751Z,25.47
2023-10-04T09:14:19.009Z,25.43
2023-10-04T09:17:07.157Z,24.98
2023-10-04T09:19:50.087Z,25.62
2023-10-04T09:22:23.931Z,25.76
2023-10-04T09:25:01.484Z,25.68
2023-10-04T09:27:32.635Z,25.83
2023-10-04T09:30:04.780Z,25.82
2023-10-04T09:32:39.903Z,26.05
2023-10-04T09:35:15.279Z,25.77
2023-10-04T09:37:45.995Z,25.92
2023-10-04T09:40:25.191Z,25.76
2023-10-04T09:43:04.458Z,25.43
2023-10-04T09:45:35.255Z,25.32
2023-10-04T09:48:22.277Z,25.69
2023-10-04T09:51:06.556Z,26.20
2023-10-04T09:53:40.869Z,26.31
2023-10-04T09:56:14.001Z,26.67
2023-10-04T09:58:53.065Z,26.67
2023-10-04T10:01:27.001Z,27.01
2023-10-04T10:04:04.383Z,26.78
2023-10-04T10:06:52.671Z,26.08
2023-10-04T10:09:27.810Z,26.08
2023-10-04T10:12:03.771Z,26.29
2023-10-04T10:14:37.867Z,26.48
2023-10-04T10:17:08.626Z,26.60
2023-10-04T10:19:39.672Z,26.59
2023-10-04T10:22:17.446Z,26.16
2023-10-04T10:24:51.524Z,26.07
2023-10-04T10:27:23.980Z,25.93
2023-10-04T10:29:55.171Z,25.67
2023-10-04T10:32:32.051Z,25.71
2023-10-04T10:35:06.833Z,25.64
2023-10-04T10:37:42.360Z,25.52
2023-10-04T10:40:36.571Z,25.48
2023-10-04T10:43:15.836Z,25.39
2023-10-04T10:45:48.375Z,25.46
2023-10-04T10:48:35.785Z,25.62
2023-10-04T10:51:06.569Z,25.65
2023-10-04T10:53:40.093Z,25.66
2023-10-04T10:56:14.207Z,25.75
2023-10-04T10:58:53.343Z,25.77
2023-10-04T11:01:25.914Z,26.09
2023-10-04T11:04:02.789Z,26.40
2023-10-04T11:06:36.950Z,26.75
2023-10-04T11:09:14.899Z,26.91
2023-10-04T11:11:49.448Z,26.92
2023-10-04T11:14:24.128Z,26.81
2023-10-04T11:16:57.314Z,26.62
2023-10-04T11:19:28.583Z,26.66
2023-10-04T11:22:00.796Z,26.78
2023-10-04T11:24:34.548Z,27.18
2023-10-04T11:27:05.459Z,27.32
2023-10-04T11:29:37.245Z,27.27
2023-10-04T11:32:11.030Z,27.04
2023-10-04T11:34:44.677Z,26.87
2023-10-04T11:37:16.278Z,26.76
2023-10-04T11:39:52.644Z,26.75
2023-10-04T11:42:26.420Z,26.70
2023-10-04T11:45:04.089Z,26.53
2023-10-04T11:47:39.008Z,26.22
2023-10-04T11:50:12.718Z,26.20
2023-10-04T11:52:44.461Z,25.99
2023-10-04T11:55:37.594Z,25.88
2023-10-04T11:58:11.830Z,25.89
2023-10-04T12:00:43.979Z,25.99
2023-10-04T12:03:17.280Z,26.09
2023-10-04T12:05:47.859Z,26.34
2023-10-04T12:08:20.763Z,26.42
2023-10-04T12:10:53.669Z,26.63
2023-10-04T12:13:27.541Z,26.73
2023-10-04T12:15:58.538Z,26.43
2023-10-04T12:18:32.255Z,26.34
2023-10-04T12:21:03.146Z,26.13
2023-10-04T12:23:35.711Z,25.81
2023-10-04T12:26:08.928Z,25.56
2023-10-04T12:28:39.511Z,25.23
2023-10-04T12:31:11.837Z,25.36
2023-10-04T12:33:43.298Z,25.60
2023-10-04T12:36:16.425Z,25.48
2023-10-04T12:38:47.673Z,25.53
2023-10-04T12:41:21.441Z,25.32
2023-10-04T12:43:54.801Z,25.24
2023-10-04T12:46:25.712Z,25.30
2023-10-04T12:48:56.105Z,25.46
2023-10-04T12:51:27.993Z,25.03
2023-10-04T12:53:58.966Z,25.14
2023-10-04T12:56:32.377Z,25.38
2023-10-04T12:59:05.003Z,25.55
2023-10-04T13:01:36.369Z,25.47
2023-10-04T13:04:10.304Z,25.52
2023-10-04T13:06:42.338Z,25.46
2023-10-04T13:09:20.193Z,25.39
2023-10-04T13:11:55.931Z,25.03
2023-10-04T13:14:26.198Z,24.88
2023-10-04T13:17:00.102Z,24.73
2023-10-04T13:19:34.235Z,24.52
2023-10-04T13:22:07.139Z,24.47
2023-10-04T13:24:41.425Z,24.31
2023-10-04T13:27:14.910Z,24.21
2023-10-04T13:29:45.828Z,24.14
2023-10-04T13:32:17.030Z,24.05
2023-10-04T13:34:47.543Z,23.92
2023-10-04T13:37:17.784Z,23.83
2023-10-04T13:39:49.180Z,23.76
2023-10-04T13:44:58.678Z,23.10
2023-10-04T13:47:34.924Z,22.78
2023-10-04T13:50:09.572Z,22.62
2023-10-04T13:52:43.654Z,22.28
2023-10-04T13:55:14.480Z,21.80
2023-10-04T13:57:47.408Z,21.73
2023-10-04T14:00:27.019Z,21.62
2023-10-04T14:03:00.694Z,21.57
2023-10-04T14:05:31.264Z,21.53
2023-10-04T14:08:02.179Z,21.51
2023-10-04T14:10:37.907Z,21.37
2023-10-04T14:13:13.321Z,21.20
2023-10-04T14:15:44.243Z,21.07
2023-10-04T14:18:16.678Z,20.89
2023-10-04T14:20:48.084Z,20.53
2023-10-04T14:23:25.820Z,20.29
2023-10-04T14:25:58.538Z,20.14
2023-10-04T14:28:36.655Z,19.89
2023-10-04T14:31:07.559Z,19.63
2023-10-04T14:33:37.932Z,19.23
2023-10-04T14:36:09.379Z,19.15
2023-10-04T14:38:40.191Z,19.00
2023-10-04T14:41:16.976Z,19.02
2023-10-04T14:43:50.976Z,18.87
2023-10-04T14:46:22.155Z,18.82
2023-10-04T14:48:54.436Z,18.70
2023-10-04T14:51:27.205Z,18.50
2023-10-04T14:53:59.599Z,18.44
2023-10-04T14:56:31.762Z,18.41
2023-10-04T14:59:08.477Z,18.31
2023-10-04T15:01:42.541Z,18.25
2023-10-04T15:04:18.731Z,18.31
2023-10-04T15:06:49.831Z,18.29
2023-10-04T15:09:20.428Z,18.18
2023-10-04T15:11:56.577Z,18.17
2023-10-04T15:14:30.169Z,18.18
2023-10-04T15:17:00.768Z,18.18
2023-10-04T15:19:32.134Z,18.17
2023-10-04T15:22:02.519Z,18.21
2023-10-04T15:24:34.377Z,18.19
2023-10-04T15:27:05.241Z,18.04
2023-10-04T15:29:39.979Z,17.97
2023-10-04T15:32:13.740Z,17.91
2023-10-04T15:34:57.447Z,17.84
2023-10-04T15:37:28.499Z,17.80
2023-10-04T15:39:59.871Z,17.84
2023-10-04T15:42:32.222Z,17.80
2023-10-04T15:45:05.348Z,17.77
2023-10-04T15:47:37.430Z,17.70
2023-10-04T15:50:10.432Z,17.62
2023-10-04T15:52:42.981Z,17.48
2023-10-04T15:55:14.221Z,17.48
2023-10-04T15:57:47.915Z,17.43
2023-10-04T16:00:31.524Z,17.34
2023-10-04T16:03:02.950Z,17.34
2023-10-04T16:05:35.560Z,17.29
2023-10-04T16:08:06.788Z,17.29
2023-10-04T16:10:39.084Z,17.25
2023-10-04T16:13:10.245Z,17.24
2023-10-04T16:15:44.530Z,17.21
2023-10-04T16:18:16.211Z,17.19
2023-10-04T16:20:48.683Z,17.18
2023-10-04T16:23:26.880Z,17.17
2023-10-04T16:25:57.682Z,17.15
2023-10-04T16:28:27.666Z,17.10
2023-10-04T16:31:02.791Z,17.02
2023-10-04T16:33:37.009Z,16.99
2023-10-04T16:36:08.142Z,16.93
2023-10-04T16:38:44.935Z,16.88
2023-10-04T16:41:15.543Z,16.82
2023-10-04T16:43:45.834Z,16.76
2023-10-04T16:46:18.487Z,16.71
2023-10-04T16:48:49.478Z,16.62
2023-10-04T16:51:20.282Z,16.55
2023-10-04T16:53:50.714Z,16.50
2023-10-04T16:56:22.043Z,16.41
2023-10-04T16:58:58.253Z,16.33
2023-10-04T17:01:34.708Z,16.25
2023-10-04T17:04:06.097Z,16.17
2023-10-04T17:06:37.407Z,16.12
2023-10-04T17:09:08.928Z,16.03
2023-10-04T17:11:41.890Z,15.98
2023-10-04T17:14:15.474Z,15.90
2023-10-04T17:16:51.162Z,15.84
2023-10-04T17:19:24.790Z,15.82
2023-10-04T17:22:07.687Z,15.72
2023-10-04T17:25:04.207Z,15.59
2023-10-04T17:27:37.361Z,15.47
2023-10-04T17:30:20.851Z,15.38
2023-10-04T17:32:54.077Z,15.27
2023-10-04T17:35:24.490Z,15.19
2023-10-04T17:37:59.141Z,15.09
2023-10-04T17:40:32.980Z,14.96
2023-10-04T17:43:03.881Z,14.91
2023-10-04T17:45:42.703Z,14.88
2023-10-04T17:48:20.661Z,14.83
2023-10-04T17:50:54.585Z,14.82
2023-10-04T17:53:37.900Z,14.77
2023-10-04T17:56:13.594Z,14.71
2023-10-04T17:58:45.501Z,14.66
2023-10-04T18:01:19.219Z,14.64
2023-10-04T18:03:54.482Z,14.60
2023-10-04T18:06:28.831Z,14.57
2023-10-04T18:08:59.763Z,14.59
2023-10-04T18:11:36.114Z,14.51
2023-10-04T18:14:10.646Z,14.51
2023-10-04T18:16:42.815Z,14.56
2023-10-04T18:19:22.465Z,14.52
2023-10-04T18:21:59.007Z,14.62
2023-10-04T18:24:44.375Z,14.54
2023-10-04T18:27:25.292Z,14.54
2023-10-04T18:30:16.658Z,14.61
2023-10-04T18:32:57.389Z,14.67
2023-10-04T18:35:36.552Z,14.66
2023-10-04T18:38:14.851Z,14.77
2023-10-04T18:40:45.841Z,14.80
2023-10-04T18:43:23.093Z,14.78
2023-10-04T18:45:59.794Z,14.81
2023-10-04T18:48:36.664Z,14.75
2023-10-04T18:51:10.679Z,14.66
2023-10-04T18:53:42.619Z,14.66
2023-10-04T18:56:14.425Z,14.52
2023-10-04T18:58:48.198Z,14.43
2023-10-04T19:01:27.676Z,14.32
2023-10-04T19:04:11.521Z,14.30
2023-10-04T19:06:45.953Z,14.26
2023-10-04T19:09:18.611Z,14.33
2023-10-04T19:11:50.118Z,14.24
2023-10-04T19:14:24.703Z,14.32
2023-10-04T19:16:58.463Z,14.32
2023-10-04T19:19:35.660Z,14.34
2023-10-04T19:22:10.593Z,14.33
2023-10-04T19:24:42.958Z,14.25
2023-10-04T19:27:13.773Z,14.14
2023-10-04T19:29:45.132Z,14.15
2023-10-04T19:32:16.446Z,14.16
2023-10-04T19:34:47.261Z,14.11
2023-10-04T19:37:24.551Z,14.14
2023-10-04T19:39:56.916Z,14.13
2023-10-04T19:42:30.643Z,14.07
2023-10-04T19:45:01.741Z,14.10
2023-10-04T19:47:34.115Z,13.93
2023-10-04T19:50:07.527Z,13.94
2023-10-04T19:52:50.615Z,13.87
2023-10-04T19:55:25.301Z,13.83
2023-10-04T19:57:56.355Z,13.85
2023-10-04T20:00:30.442Z,13.88
2023-10-04T20:03:02.532Z,13.90
2023-10-04T20:05:35.150Z,14.03
2023-10-04T20:08:15.864Z,14.09
2023-10-04T20:10:47.176Z,14.21
2023-10-04T20:13:18.508Z,14.24
2023-10-04T20:15:49.950Z,14.21
2023-10-04T20:18:20.371Z,14.15
2023-10-04T20:20:51.697Z,14.08
2023-10-04T20:23:36.760Z,14.04
2023-10-04T20:26:13.672Z,14.02
2023-10-04T20:28:45.549Z,13.92
2023-10-04T20:31:15.948Z,13.68
2023-10-04T20:33:47.269Z,13.33
2023-10-04T20:36:17.659Z,13.17
2023-10-04T20:38:53.237Z,13.08
2023-10-04T20:41:28.160Z,12.99
2023-10-04T20:43:59.983Z,12.95
2023-10-04T20:46:31.366Z,12.87
2023-10-04T20:49:04.525Z,12.78
2023-10-04T20:51:38.440Z,12.78
2023-10-04T20:54:12.840Z,12.75
2023-10-04T20:56:43.584Z,12.72
2023-10-04T20:59:13.829Z,12.66
2023-10-04T21:01:44.265Z,12.60
2023-10-04T21:04:18.979Z,12.57
2023-10-04T21:06:50.645Z,12.59
2023-10-04T21:09:28.288Z,12.59
2023-10-04T21:12:00.962Z,12.53
2023-10-04T21:14:31.363Z,12.50
2023-10-04T21:17:02.098Z,12.45
2023-10-04T21:19:38.172Z,12.44
2023-10-04T21:22:10.497Z,12.48
2023-10-04T21:24:49.001Z,12.43
2023-10-04T21:27:24.026Z,12.43
2023-10-04T21:29:59.490Z,12.42
2023-10-04T21:32:38.108Z,12.39
2023-10-04T21:35:15.549Z,12.43
2023-10-04T21:37:50.609Z,12.38
2023-10-04T21:40:27.124Z,12.36
2023-10-04T21:43:00.848Z,12.31
2023-10-04T21:45:34.434Z,12.30
2023-10-04T21:48:08.339Z,12.29
2023-10-04T21:50:41.380Z,12.25
2023-10-04T21:53:12.383Z,12.17
2023-10-04T21:55:47.409Z,12.15
2023-10-04T21:58:20.757Z,12.13
2023-10-04T22:00:55.059Z,12.09
2023-10-04T22:03:27.482Z,11.99
2023-10-04T22:05:59.644Z,11.96
2023-10-04T22:08:31.243Z,11.90
2023-10-04T22:11:04.083Z,11.92
2023-10-04T22:13:41.601Z,11.92
2023-10-04T22:16:12.003Z,11.80
2023-10-04T22:18:46.444Z,11.78
2023-10-04T22:21:17.371Z,11.78
2023-10-04T22:23:47.678Z,11.81
2023-10-04T22:26:22.261Z,11.80
2023-10-04T22:28:56.037Z,11.76
2023-10-04T22:31:26.450Z,11.70
2023-10-04T22:33:57.814Z,11.75
2023-10-04T22:36:36.498Z,11.75
2023-10-04T22:39:10.494Z,11.65
2023-10-04T22:41:44.042Z,11.72
2023-10-04T22:44:17.536Z,11.68
2023-10-04T22:46:49.336Z,11.65
2023-10-04T22:49:20.155Z,11.65
2023-10-04T22:51:50.714Z,11.62
2023-10-04T22:54:21.714Z,11.59
2023-10-04T22:56:56.015Z,11.58
2023-10-04T22:59:31.254Z,11.58
2023-10-04T23:02:02.454Z,11.61
2023-10-04T23:04:37.529Z,11.60
2023-10-04T23:07:11.154Z,11.55
2023-10-04T23:09:43.418Z,11.53
2023-10-04T23:12:16.408Z,11.50
2023-10-04T23:14:50.862Z,11.48
2023-10-04T23:17:26.619Z,11.52
2023-10-04T23:19:59.954Z,11.49
2023-10-04T23:22:31.315Z,11.45
2023-10-04T23:25:04.776Z,11.46
2023-10-04T23:27:38.967Z,11.46
2023-10-04T23:30:16.256Z,11.44
2023-10-04T23:32:49.144Z,11.37
2023-10-04T23:35:43.385Z,11.38
2023-10-04T23:38:48.084Z,11.40
2023-10-04T23:41:34.074Z,11.38
2023-10-04T23:44:13.589Z,11.36
2023-10-04T23:46:45.309Z,11.32
2023-10-04T23:49:20.857Z,11.31
2023-10-04T23:51:54.847Z,11.32
2023-10-04T23:54:31.058Z,11.30
2023-10-04T23:57:14.416Z,11.32
2023-10-04T23:59:55.909Z,11.32
